sensor_id;sensor_type;location;lat;lon;timestamp;P1;durP1;ratioP1;P2;durP2;ratioP2
84351;SDS011;74537;43.526;1.518;2023-12-14T00:00:17;1.35;;;0.80;;
84351;SDS011;74537;43.526;1.518;2023-12-14T00:02:43;3.33;;;0.63;;
84351;SDS011;74537;43.526;1.518;2023-12-14T00:05:08;1.60;;;0.55;;
84351;SDS011;74537;43.526;1.518;2023-12-14T00:07:34;0.60;;;0.50;;
84351;SDS011;74537;43.526;1.518;2023-12-14T00:09:59;2.88;;;0.80;;
84351;SDS011;74537;43.526;1.518;2023-12-14T00:12:25;1.05;;;0.60;;
84351;SDS011;74537;43.526;1.518;2023-12-14T00:14:50;1.27;;;0.40;;
84351;SDS011;74537;43.526;1.518;2023-12-14T00:17:15;1.33;;;0.50;;
84351;SDS011;74537;43.526;1.518;2023-12-14T00:19:41;2.83;;;0.70;;
84351;SDS011;74537;43.526;1.518;2023-12-14T00:22:07;2.17;;;0.60;;
84351;SDS011;74537;43.526;1.518;2023-12-14T00:24:33;2.20;;;0.82;;
84351;SDS011;74537;43.526;1.518;2023-12-14T00:26:58;1.98;;;0.75;;
84351;SDS011;74537;43.526;1.518;2023-12-14T00:29:24;2.05;;;0.60;;
84351;SDS011;74537;43.526;1.518;2023-12-14T00:31:49;0.82;;;0.57;;
84351;SDS011;74537;43.526;1.518;2023-12-14T00:34:14;2.33;;;0.57;;
84351;SDS011;74537;43.526;1.518;2023-12-14T00:36:40;0.82;;;0.60;;
84351;SDS011;74537;43.526;1.518;2023-12-14T00:39:05;2.60;;;0.70;;
84351;SDS011;74537;43.526;1.518;2023-12-14T00:41:31;3.05;;;0.80;;
84351;SDS011;74537;43.526;1.518;2023-12-14T00:43:56;2.25;;;0.70;;
84351;SDS011;74537;43.526;1.518;2023-12-14T00:46:22;3.83;;;0.90;;
84351;SDS011;74537;43.526;1.518;2023-12-14T00:48:47;2.58;;;0.73;;
84351;SDS011;74537;43.526;1.518;2023-12-14T00:51:12;1.85;;;0.70;;
84351;SDS011;74537;43.526;1.518;2023-12-14T00:53:38;1.48;;;0.75;;
84351;SDS011;74537;43.526;1.518;2023-12-14T00:56:03;3.60;;;0.82;;
84351;SDS011;74537;43.526;1.518;2023-12-14T00:58:29;2.20;;;0.77;;
84351;SDS011;74537;43.526;1.518;2023-12-14T01:00:54;1.77;;;0.80;;
84351;SDS011;74537;43.526;1.518;2023-12-14T01:03:20;2.53;;;1.17;;
84351;SDS011;74537;43.526;1.518;2023-12-14T01:05:46;1.77;;;0.57;;
84351;SDS011;74537;43.526;1.518;2023-12-14T01:08:11;1.52;;;0.60;;
84351;SDS011;74537;43.526;1.518;2023-12-14T01:10:37;2.17;;;0.60;;
84351;SDS011;74537;43.526;1.518;2023-12-14T01:13:02;1.85;;;0.68;;
84351;SDS011;74537;43.526;1.518;2023-12-14T01:15:27;3.55;;;0.90;;
84351;SDS011;74537;43.526;1.518;2023-12-14T01:17:54;0.90;;;0.65;;
84351;SDS011;74537;43.526;1.518;2023-12-14T01:20:19;3.28;;;0.80;;
84351;SDS011;74537;43.526;1.518;2023-12-14T01:22:44;3.22;;;1.13;;
84351;SDS011;74537;43.526;1.518;2023-12-14T01:25:10;2.00;;;0.70;;
84351;SDS011;74537;43.526;1.518;2023-12-14T01:27:36;1.77;;;1.00;;
84351;SDS011;74537;43.526;1.518;2023-12-14T01:30:02;3.63;;;0.80;;
84351;SDS011;74537;43.526;1.518;2023-12-14T01:32:27;2.45;;;0.90;;
84351;SDS011;74537;43.526;1.518;2023-12-14T01:34:53;2.25;;;0.80;;
84351;SDS011;74537;43.526;1.518;2023-12-14T01:37:18;5.43;;;0.93;;
84351;SDS011;74537;43.526;1.518;2023-12-14T01:39:44;1.70;;;0.90;;
84351;SDS011;74537;43.526;1.518;2023-12-14T01:42:09;4.35;;;1.00;;
84351;SDS011;74537;43.526;1.518;2023-12-14T01:44:35;4.03;;;1.00;;
84351;SDS011;74537;43.526;1.518;2023-12-14T01:47:00;1.77;;;0.70;;
84351;SDS011;74537;43.526;1.518;2023-12-14T01:49:26;2.78;;;0.95;;
84351;SDS011;74537;43.526;1.518;2023-12-14T01:51:51;2.92;;;0.95;;
84351;SDS011;74537;43.526;1.518;2023-12-14T01:54:17;3.05;;;0.90;;
84351;SDS011;74537;43.526;1.518;2023-12-14T01:56:42;2.70;;;0.93;;
84351;SDS011;74537;43.526;1.518;2023-12-14T01:59:07;2.47;;;0.90;;
84351;SDS011;74537;43.526;1.518;2023-12-14T02:01:38;2.35;;;1.10;;
84351;SDS011;74537;43.526;1.518;2023-12-14T02:04:07;2.50;;;0.85;;
84351;SDS011;74537;43.526;1.518;2023-12-14T02:06:33;2.25;;;0.90;;
84351;SDS011;74537;43.526;1.518;2023-12-14T02:08:59;3.05;;;1.13;;
84351;SDS011;74537;43.526;1.518;2023-12-14T02:11:24;3.40;;;1.00;;
84351;SDS011;74537;43.526;1.518;2023-12-14T02:13:50;2.05;;;0.93;;
84351;SDS011;74537;43.526;1.518;2023-12-14T02:16:15;2.58;;;0.90;;
84351;SDS011;74537;43.526;1.518;2023-12-14T02:18:41;3.47;;;1.20;;
84351;SDS011;74537;43.526;1.518;2023-12-14T02:21:06;2.72;;;0.82;;
84351;SDS011;74537;43.526;1.518;2023-12-14T02:23:32;3.97;;;0.95;;
84351;SDS011;74537;43.526;1.518;2023-12-14T02:25:58;4.00;;;1.00;;
84351;SDS011;74537;43.526;1.518;2023-12-14T02:28:24;2.50;;;1.00;;
84351;SDS011;74537;43.526;1.518;2023-12-14T02:30:49;2.05;;;0.82;;
84351;SDS011;74537;43.526;1.518;2023-12-14T02:33:14;3.53;;;0.90;;
84351;SDS011;74537;43.526;1.518;2023-12-14T02:35:40;3.70;;;0.88;;
84351;SDS011;74537;43.526;1.518;2023-12-14T02:38:05;2.00;;;1.10;;
84351;SDS011;74537;43.526;1.518;2023-12-14T02:40:31;1.42;;;0.77;;
84351;SDS011;74537;43.526;1.518;2023-12-14T02:42:56;1.77;;;0.80;;
84351;SDS011;74537;43.526;1.518;2023-12-14T02:45:22;0.80;;;0.57;;
84351;SDS011;74537;43.526;1.518;2023-12-14T02:47:47;2.85;;;0.90;;
84351;SDS011;74537;43.526;1.518;2023-12-14T02:50:14;1.92;;;0.82;;
84351;SDS011;74537;43.526;1.518;2023-12-14T02:52:40;3.13;;;1.00;;
84351;SDS011;74537;43.526;1.518;2023-12-14T02:55:05;2.42;;;0.75;;
84351;SDS011;74537;43.526;1.518;2023-12-14T02:57:31;3.35;;;0.93;;
84351;SDS011;74537;43.526;1.518;2023-12-14T02:59:57;1.55;;;0.70;;
84351;SDS011;74537;43.526;1.518;2023-12-14T03:02:22;2.47;;;0.90;;
84351;SDS011;74537;43.526;1.518;2023-12-14T03:04:47;0.95;;;0.85;;
84351;SDS011;74537;43.526;1.518;2023-12-14T03:07:13;2.35;;;1.00;;
84351;SDS011;74537;43.526;1.518;2023-12-14T03:09:39;2.53;;;1.15;;
84351;SDS011;74537;43.526;1.518;2023-12-14T03:12:09;2.53;;;1.00;;
84351;SDS011;74537;43.526;1.518;2023-12-14T03:14:35;2.85;;;0.98;;
84351;SDS011;74537;43.526;1.518;2023-12-14T03:17:01;2.67;;;1.15;;
84351;SDS011;74537;43.526;1.518;2023-12-14T03:19:27;3.55;;;1.20;;
84351;SDS011;74537;43.526;1.518;2023-12-14T03:21:53;2.58;;;1.38;;
84351;SDS011;74537;43.526;1.518;2023-12-14T03:24:18;1.52;;;1.10;;
84351;SDS011;74537;43.526;1.518;2023-12-14T03:26:44;3.22;;;0.93;;
84351;SDS011;74537;43.526;1.518;2023-12-14T03:29:09;3.00;;;1.30;;
84351;SDS011;74537;43.526;1.518;2023-12-14T03:31:35;2.00;;;1.30;;
84351;SDS011;74537;43.526;1.518;2023-12-14T03:34:01;1.25;;;0.90;;
84351;SDS011;74537;43.526;1.518;2023-12-14T03:36:26;2.70;;;1.20;;
84351;SDS011;74537;43.526;1.518;2023-12-14T03:38:52;2.95;;;1.10;;
84351;SDS011;74537;43.526;1.518;2023-12-14T03:41:18;2.88;;;1.33;;
84351;SDS011;74537;43.526;1.518;2023-12-14T03:43:43;2.40;;;1.20;;
84351;SDS011;74537;43.526;1.518;2023-12-14T03:46:09;2.22;;;1.35;;
84351;SDS011;74537;43.526;1.518;2023-12-14T03:48:35;2.53;;;1.27;;
84351;SDS011;74537;43.526;1.518;2023-12-14T03:51:04;3.03;;;1.30;;
84351;SDS011;74537;43.526;1.518;2023-12-14T03:53:30;2.60;;;1.20;;
84351;SDS011;74537;43.526;1.518;2023-12-14T03:55:57;1.73;;;1.20;;
84351;SDS011;74537;43.526;1.518;2023-12-14T03:58:23;6.82;;;1.40;;
84351;SDS011;74537;43.526;1.518;2023-12-14T04:00:48;2.35;;;0.95;;
84351;SDS011;74537;43.526;1.518;2023-12-14T04:03:14;4.32;;;1.23;;
84351;SDS011;74537;43.526;1.518;2023-12-14T04:05:39;2.42;;;1.20;;
84351;SDS011;74537;43.526;1.518;2023-12-14T04:08:05;1.92;;;1.25;;
84351;SDS011;74537;43.526;1.518;2023-12-14T04:10:30;2.63;;;1.20;;
84351;SDS011;74537;43.526;1.518;2023-12-14T04:12:56;4.85;;;1.30;;
84351;SDS011;74537;43.526;1.518;2023-12-14T04:15:21;2.88;;;1.20;;
84351;SDS011;74537;43.526;1.518;2023-12-14T04:17:48;3.33;;;1.27;;
84351;SDS011;74537;43.526;1.518;2023-12-14T04:20:13;3.13;;;1.40;;
84351;SDS011;74537;43.526;1.518;2023-12-14T04:22:41;2.78;;;1.25;;
84351;SDS011;74537;43.526;1.518;2023-12-14T04:25:09;4.70;;;1.40;;
84351;SDS011;74537;43.526;1.518;2023-12-14T04:27:35;3.83;;;1.20;;
84351;SDS011;74537;43.526;1.518;2023-12-14T04:30:00;3.65;;;1.38;;
84351;SDS011;74537;43.526;1.518;2023-12-14T04:32:26;5.00;;;1.40;;
84351;SDS011;74537;43.526;1.518;2023-12-14T04:34:52;4.35;;;1.60;;
84351;SDS011;74537;43.526;1.518;2023-12-14T04:37:18;2.60;;;1.40;;
84351;SDS011;74537;43.526;1.518;2023-12-14T04:39:43;3.40;;;1.50;;
84351;SDS011;74537;43.526;1.518;2023-12-14T04:42:09;2.15;;;1.25;;
84351;SDS011;74537;43.526;1.518;2023-12-14T04:44:34;3.05;;;1.70;;
84351;SDS011;74537;43.526;1.518;2023-12-14T04:46:59;4.80;;;1.50;;
84351;SDS011;74537;43.526;1.518;2023-12-14T04:49:25;2.78;;;1.40;;
84351;SDS011;74537;43.526;1.518;2023-12-14T04:51:50;5.25;;;1.60;;
84351;SDS011;74537;43.526;1.518;2023-12-14T04:54:16;2.75;;;1.50;;
84351;SDS011;74537;43.526;1.518;2023-12-14T04:56:45;4.65;;;1.60;;
84351;SDS011;74537;43.526;1.518;2023-12-14T04:59:11;3.35;;;1.40;;
84351;SDS011;74537;43.526;1.518;2023-12-14T05:01:36;3.03;;;1.40;;
84351;SDS011;74537;43.526;1.518;2023-12-14T05:04:02;2.47;;;1.65;;
84351;SDS011;74537;43.526;1.518;2023-12-14T05:06:27;5.05;;;1.45;;
84351;SDS011;74537;43.526;1.518;2023-12-14T05:08:53;2.95;;;1.45;;
84351;SDS011;74537;43.526;1.518;2023-12-14T05:11:19;3.33;;;1.63;;
84351;SDS011;74537;43.526;1.518;2023-12-14T05:13:44;3.22;;;1.58;;
84351;SDS011;74537;43.526;1.518;2023-12-14T05:16:13;3.47;;;1.52;;
84351;SDS011;74537;43.526;1.518;2023-12-14T05:18:39;2.40;;;1.40;;
84351;SDS011;74537;43.526;1.518;2023-12-14T05:21:05;4.72;;;1.52;;
84351;SDS011;74537;43.526;1.518;2023-12-14T05:23:30;2.28;;;1.30;;
84351;SDS011;74537;43.526;1.518;2023-12-14T05:25:56;3.28;;;1.33;;
84351;SDS011;74537;43.526;1.518;2023-12-14T05:28:22;3.97;;;1.42;;
84351;SDS011;74537;43.526;1.518;2023-12-14T05:30:48;5.60;;;1.80;;
84351;SDS011;74537;43.526;1.518;2023-12-14T05:33:14;6.15;;;2.42;;
84351;SDS011;74537;43.526;1.518;2023-12-14T05:35:39;3.75;;;1.60;;
84351;SDS011;74537;43.526;1.518;2023-12-14T05:38:05;5.10;;;1.38;;
84351;SDS011;74537;43.526;1.518;2023-12-14T05:40:30;3.08;;;1.35;;
84351;SDS011;74537;43.526;1.518;2023-12-14T05:42:56;2.55;;;1.42;;
84351;SDS011;74537;43.526;1.518;2023-12-14T05:45:22;3.58;;;1.50;;
84351;SDS011;74537;43.526;1.518;2023-12-14T05:47:47;4.07;;;1.48;;
84351;SDS011;74537;43.526;1.518;2023-12-14T05:50:13;5.32;;;1.48;;
84351;SDS011;74537;43.526;1.518;2023-12-14T05:52:38;2.88;;;1.50;;
84351;SDS011;74537;43.526;1.518;2023-12-14T05:55:07;4.72;;;1.60;;
84351;SDS011;74537;43.526;1.518;2023-12-14T05:57:37;2.85;;;1.42;;
84351;SDS011;74537;43.526;1.518;2023-12-14T06:00:03;2.55;;;1.50;;
84351;SDS011;74537;43.526;1.518;2023-12-14T06:02:30;3.72;;;1.58;;
84351;SDS011;74537;43.526;1.518;2023-12-14T06:04:57;3.58;;;1.70;;
84351;SDS011;74537;43.526;1.518;2023-12-14T06:07:23;3.20;;;1.30;;
84351;SDS011;74537;43.526;1.518;2023-12-14T06:09:49;4.82;;;1.58;;
84351;SDS011;74537;43.526;1.518;2023-12-14T06:12:14;5.32;;;2.00;;
84351;SDS011;74537;43.526;1.518;2023-12-14T06:14:40;4.85;;;1.95;;
84351;SDS011;74537;43.526;1.518;2023-12-14T06:17:05;2.83;;;1.40;;
84351;SDS011;74537;43.526;1.518;2023-12-14T06:19:30;3.97;;;1.65;;
84351;SDS011;74537;43.526;1.518;2023-12-14T06:21:57;3.92;;;1.50;;
84351;SDS011;74537;43.526;1.518;2023-12-14T06:24:23;4.70;;;1.70;;
84351;SDS011;74537;43.526;1.518;2023-12-14T06:26:48;3.95;;;1.60;;
84351;SDS011;74537;43.526;1.518;2023-12-14T06:29:14;4.30;;;1.70;;
84351;SDS011;74537;43.526;1.518;2023-12-14T06:31:40;4.30;;;1.38;;
84351;SDS011;74537;43.526;1.518;2023-12-14T06:34:05;3.13;;;1.48;;
84351;SDS011;74537;43.526;1.518;2023-12-14T06:36:31;4.15;;;1.35;;
84351;SDS011;74537;43.526;1.518;2023-12-14T06:38:58;5.93;;;1.48;;
84351;SDS011;74537;43.526;1.518;2023-12-14T06:41:24;4.75;;;1.27;;
84351;SDS011;74537;43.526;1.518;2023-12-14T06:43:51;6.75;;;1.60;;
84351;SDS011;74537;43.526;1.518;2023-12-14T06:46:18;3.97;;;1.70;;
84351;SDS011;74537;43.526;1.518;2023-12-14T06:48:43;4.40;;;1.73;;
84351;SDS011;74537;43.526;1.518;2023-12-14T06:51:10;6.10;;;2.00;;
84351;SDS011;74537;43.526;1.518;2023-12-14T06:53:35;3.90;;;1.60;;
84351;SDS011;74537;43.526;1.518;2023-12-14T06:56:03;3.88;;;1.50;;
84351;SDS011;74537;43.526;1.518;2023-12-14T06:58:29;4.68;;;1.70;;
84351;SDS011;74537;43.526;1.518;2023-12-14T07:00:54;4.32;;;1.60;;
84351;SDS011;74537;43.526;1.518;2023-12-14T07:03:20;7.57;;;1.65;;
84351;SDS011;74537;43.526;1.518;2023-12-14T07:05:45;5.60;;;1.88;;
84351;SDS011;74537;43.526;1.518;2023-12-14T07:08:11;4.80;;;1.63;;
84351;SDS011;74537;43.526;1.518;2023-12-14T07:10:36;4.20;;;1.50;;
84351;SDS011;74537;43.526;1.518;2023-12-14T07:13:02;3.33;;;1.60;;
84351;SDS011;74537;43.526;1.518;2023-12-14T07:15:27;3.10;;;1.40;;
84351;SDS011;74537;43.526;1.518;2023-12-14T07:17:52;3.95;;;1.35;;
84351;SDS011;74537;43.526;1.518;2023-12-14T07:20:18;3.30;;;1.40;;
84351;SDS011;74537;43.526;1.518;2023-12-14T07:22:43;4.20;;;1.60;;
84351;SDS011;74537;43.526;1.518;2023-12-14T07:25:09;3.22;;;1.50;;
84351;SDS011;74537;43.526;1.518;2023-12-14T07:27:34;3.72;;;2.10;;
84351;SDS011;74537;43.526;1.518;2023-12-14T07:30:00;3.97;;;1.35;;
84351;SDS011;74537;43.526;1.518;2023-12-14T07:32:25;9.57;;;1.70;;
84351;SDS011;74537;43.526;1.518;2023-12-14T07:34:52;3.35;;;1.20;;
84351;SDS011;74537;43.526;1.518;2023-12-14T07:37:17;2.20;;;1.17;;
84351;SDS011;74537;43.526;1.518;2023-12-14T07:39:43;4.88;;;1.33;;
84351;SDS011;74537;43.526;1.518;2023-12-14T07:42:09;6.13;;;1.92;;
84351;SDS011;74537;43.526;1.518;2023-12-14T07:44:34;6.25;;;1.48;;
84351;SDS011;74537;43.526;1.518;2023-12-14T07:47:02;3.38;;;1.40;;
84351;SDS011;74537;43.526;1.518;2023-12-14T07:49:27;2.67;;;1.15;;
84351;SDS011;74537;43.526;1.518;2023-12-14T07:51:53;4.22;;;1.33;;
84351;SDS011;74537;43.526;1.518;2023-12-14T07:54:18;5.13;;;1.95;;
84351;SDS011;74537;43.526;1.518;2023-12-14T07:56:47;3.97;;;1.45;;
84351;SDS011;74537;43.526;1.518;2023-12-14T07:59:12;4.15;;;1.35;;
84351;SDS011;74537;43.526;1.518;2023-12-14T08:01:38;5.00;;;1.50;;
84351;SDS011;74537;43.526;1.518;2023-12-14T08:04:03;4.43;;;1.77;;
84351;SDS011;74537;43.526;1.518;2023-12-14T08:06:29;4.65;;;1.60;;
84351;SDS011;74537;43.526;1.518;2023-12-14T08:08:55;5.38;;;1.63;;
84351;SDS011;74537;43.526;1.518;2023-12-14T08:11:23;5.25;;;2.20;;
84351;SDS011;74537;43.526;1.518;2023-12-14T08:13:49;5.88;;;1.65;;
84351;SDS011;74537;43.526;1.518;2023-12-14T08:16:14;7.18;;;1.75;;
84351;SDS011;74537;43.526;1.518;2023-12-14T08:18:42;4.20;;;1.50;;
84351;SDS011;74537;43.526;1.518;2023-12-14T08:21:10;4.78;;;1.85;;
84351;SDS011;74537;43.526;1.518;2023-12-14T08:23:36;7.93;;;1.88;;
84351;SDS011;74537;43.526;1.518;2023-12-14T08:26:02;7.53;;;1.85;;
84351;SDS011;74537;43.526;1.518;2023-12-14T08:28:27;3.75;;;1.90;;
84351;SDS011;74537;43.526;1.518;2023-12-14T08:30:53;5.63;;;2.03;;
84351;SDS011;74537;43.526;1.518;2023-12-14T08:33:18;4.35;;;1.63;;
84351;SDS011;74537;43.526;1.518;2023-12-14T08:35:44;3.75;;;1.70;;
84351;SDS011;74537;43.526;1.518;2023-12-14T08:38:09;4.30;;;1.20;;
84351;SDS011;74537;43.526;1.518;2023-12-14T08:40:36;2.85;;;1.30;;
84351;SDS011;74537;43.526;1.518;2023-12-14T08:43:02;2.85;;;1.13;;
84351;SDS011;74537;43.526;1.518;2023-12-14T08:45:28;6.82;;;1.45;;
84351;SDS011;74537;43.526;1.518;2023-12-14T08:47:54;2.58;;;1.30;;
84351;SDS011;74537;43.526;1.518;2023-12-14T08:50:20;2.72;;;1.10;;
84351;SDS011;74537;43.526;1.518;2023-12-14T08:52:46;5.13;;;1.50;;
84351;SDS011;74537;43.526;1.518;2023-12-14T08:55:12;3.20;;;1.10;;
84351;SDS011;74537;43.526;1.518;2023-12-14T08:57:38;2.15;;;1.20;;
84351;SDS011;74537;43.526;1.518;2023-12-14T09:00:06;1.70;;;1.00;;
84351;SDS011;74537;43.526;1.518;2023-12-14T09:02:33;4.53;;;1.20;;
84351;SDS011;74537;43.526;1.518;2023-12-14T09:05:00;3.75;;;1.10;;
84351;SDS011;74537;43.526;1.518;2023-12-14T09:07:25;4.85;;;1.25;;
84351;SDS011;74537;43.526;1.518;2023-12-14T09:09:51;7.07;;;2.00;;
84351;SDS011;74537;43.526;1.518;2023-12-14T09:12:16;4.28;;;1.40;;
84351;SDS011;74537;43.526;1.518;2023-12-14T09:14:42;2.88;;;1.38;;
84351;SDS011;74537;43.526;1.518;2023-12-14T09:17:07;3.95;;;1.50;;
84351;SDS011;74537;43.526;1.518;2023-12-14T09:19:33;5.20;;;1.38;;
84351;SDS011;74537;43.526;1.518;2023-12-14T09:21:58;5.25;;;1.20;;
84351;SDS011;74537;43.526;1.518;2023-12-14T09:24:24;3.85;;;1.20;;
84351;SDS011;74537;43.526;1.518;2023-12-14T09:26:50;5.57;;;1.17;;
84351;SDS011;74537;43.526;1.518;2023-12-14T09:29:15;5.13;;;1.30;;
84351;SDS011;74537;43.526;1.518;2023-12-14T09:31:42;1.80;;;1.10;;
84351;SDS011;74537;43.526;1.518;2023-12-14T09:34:08;3.40;;;1.17;;
84351;SDS011;74537;43.526;1.518;2023-12-14T09:36:34;3.08;;;1.05;;
84351;SDS011;74537;43.526;1.518;2023-12-14T09:39:00;2.53;;;1.17;;
84351;SDS011;74537;43.526;1.518;2023-12-14T09:41:25;6.68;;;1.40;;
84351;SDS011;74537;43.526;1.518;2023-12-14T09:43:51;4.07;;;1.30;;
84351;SDS011;74537;43.526;1.518;2023-12-14T09:46:17;5.63;;;1.00;;
84351;SDS011;74537;43.526;1.518;2023-12-14T09:48:43;4.03;;;1.30;;
84351;SDS011;74537;43.526;1.518;2023-12-14T09:51:11;4.65;;;1.50;;
84351;SDS011;74537;43.526;1.518;2023-12-14T09:53:37;8.30;;;2.25;;
84351;SDS011;74537;43.526;1.518;2023-12-14T09:56:02;5.93;;;2.50;;
84351;SDS011;74537;43.526;1.518;2023-12-14T09:58:31;4.97;;;1.70;;
84351;SDS011;74537;43.526;1.518;2023-12-14T10:00:58;3.90;;;1.52;;
84351;SDS011;74537;43.526;1.518;2023-12-14T10:03:26;5.32;;;1.48;;
84351;SDS011;74537;43.526;1.518;2023-12-14T10:05:56;3.28;;;1.20;;
84351;SDS011;74537;43.526;1.518;2023-12-14T10:08:23;3.67;;;1.23;;
84351;SDS011;74537;43.526;1.518;2023-12-14T10:10:50;3.30;;;1.30;;
84351;SDS011;74537;43.526;1.518;2023-12-14T10:13:18;4.93;;;1.33;;
84351;SDS011;74537;43.526;1.518;2023-12-14T10:15:45;5.68;;;1.55;;
84351;SDS011;74537;43.526;1.518;2023-12-14T10:18:24;3.17;;;1.40;;
84351;SDS011;74537;43.526;1.518;2023-12-14T10:20:50;8.77;;;3.90;;
84351;SDS011;74537;43.526;1.518;2023-12-14T10:23:16;4.28;;;1.42;;
84351;SDS011;74537;43.526;1.518;2023-12-14T10:25:43;3.25;;;1.30;;
84351;SDS011;74537;43.526;1.518;2023-12-14T10:28:10;3.50;;;1.30;;
84351;SDS011;74537;43.526;1.518;2023-12-14T10:30:38;3.28;;;1.30;;
84351;SDS011;74537;43.526;1.518;2023-12-14T10:33:04;4.93;;;1.42;;
84351;SDS011;74537;43.526;1.518;2023-12-14T10:35:29;5.65;;;1.70;;
84351;SDS011;74537;43.526;1.518;2023-12-14T10:37:55;4.80;;;1.38;;
84351;SDS011;74537;43.526;1.518;2023-12-14T10:40:23;3.88;;;1.20;;
84351;SDS011;74537;43.526;1.518;2023-12-14T10:42:51;4.75;;;1.20;;
84351;SDS011;74537;43.526;1.518;2023-12-14T10:45:18;4.03;;;1.17;;
84351;SDS011;74537;43.526;1.518;2023-12-14T10:47:45;4.35;;;1.73;;
84351;SDS011;74537;43.526;1.518;2023-12-14T10:50:14;2.97;;;1.00;;
84351;SDS011;74537;43.526;1.518;2023-12-14T10:52:40;4.40;;;1.80;;
84351;SDS011;74537;43.526;1.518;2023-12-14T10:55:25;5.25;;;1.98;;
84351;SDS011;74537;43.526;1.518;2023-12-14T10:57:56;5.75;;;1.30;;
84351;SDS011;74537;43.526;1.518;2023-12-14T11:00:22;2.55;;;1.20;;
84351;SDS011;74537;43.526;1.518;2023-12-14T11:02:48;3.70;;;1.27;;
84351;SDS011;74537;43.526;1.518;2023-12-14T11:05:14;3.53;;;1.60;;
84351;SDS011;74537;43.526;1.518;2023-12-14T11:10:20;3.97;;;1.30;;
84351;SDS011;74537;43.526;1.518;2023-12-14T11:12:55;4.72;;;1.52;;
84351;SDS011;74537;43.526;1.518;2023-12-14T11:15:25;2.72;;;1.58;;
84351;SDS011;74537;43.526;1.518;2023-12-14T11:23:26;3.50;;;1.20;;
84351;SDS011;74537;43.526;1.518;2023-12-14T11:25:57;2.55;;;0.98;;
84351;SDS011;74537;43.526;1.518;2023-12-14T11:28:25;3.22;;;1.15;;
84351;SDS011;74537;43.526;1.518;2023-12-14T11:30:51;4.78;;;1.23;;
84351;SDS011;74537;43.526;1.518;2023-12-14T11:33:17;2.17;;;1.00;;
84351;SDS011;74537;43.526;1.518;2023-12-14T11:35:42;4.25;;;1.02;;
84351;SDS011;74537;43.526;1.518;2023-12-14T11:38:08;3.25;;;1.00;;
84351;SDS011;74537;43.526;1.518;2023-12-14T11:40:44;2.55;;;1.05;;
84351;SDS011;74537;43.526;1.518;2023-12-14T11:43:10;2.65;;;1.30;;
84351;SDS011;74537;43.526;1.518;2023-12-14T11:45:39;1.63;;;1.00;;
84351;SDS011;74537;43.526;1.518;2023-12-14T11:48:09;4.20;;;1.10;;
84351;SDS011;74537;43.526;1.518;2023-12-14T11:50:37;3.25;;;1.60;;
84351;SDS011;74537;43.526;1.518;2023-12-14T11:53:03;3.80;;;1.35;;
84351;SDS011;74537;43.526;1.518;2023-12-14T11:55:39;2.95;;;1.17;;
84351;SDS011;74537;43.526;1.518;2023-12-14T11:58:06;5.28;;;1.50;;
84351;SDS011;74537;43.526;1.518;2023-12-14T12:00:33;2.85;;;1.30;;
84351;SDS011;74537;43.526;1.518;2023-12-14T12:03:08;3.30;;;1.10;;
84351;SDS011;74537;43.526;1.518;2023-12-14T12:05:40;3.40;;;0.98;;
84351;SDS011;74537;43.526;1.518;2023-12-14T12:08:10;3.53;;;1.05;;
84351;SDS011;74537;43.526;1.518;2023-12-14T12:10:40;2.85;;;1.10;;
84351;SDS011;74537;43.526;1.518;2023-12-14T12:13:14;2.55;;;0.90;;
84351;SDS011;74537;43.526;1.518;2023-12-14T12:15:41;5.78;;;1.13;;
84351;SDS011;74537;43.526;1.518;2023-12-14T12:18:08;3.95;;;1.00;;
84351;SDS011;74537;43.526;1.518;2023-12-14T12:20:35;3.13;;;1.00;;
84351;SDS011;74537;43.526;1.518;2023-12-14T12:23:00;4.07;;;0.98;;
84351;SDS011;74537;43.526;1.518;2023-12-14T12:25:27;3.40;;;1.00;;
84351;SDS011;74537;43.526;1.518;2023-12-14T12:27:53;2.70;;;1.00;;
84351;SDS011;74537;43.526;1.518;2023-12-14T12:30:20;4.43;;;1.17;;
84351;SDS011;74537;43.526;1.518;2023-12-14T12:32:45;2.75;;;1.00;;
84351;SDS011;74537;43.526;1.518;2023-12-14T12:35:11;2.75;;;1.08;;
84351;SDS011;74537;43.526;1.518;2023-12-14T12:37:36;3.42;;;1.00;;
84351;SDS011;74537;43.526;1.518;2023-12-14T12:40:02;1.48;;;0.90;;
84351;SDS011;74537;43.526;1.518;2023-12-14T12:42:27;1.63;;;0.90;;
84351;SDS011;74537;43.526;1.518;2023-12-14T12:44:54;4.53;;;1.10;;
84351;SDS011;74537;43.526;1.518;2023-12-14T12:47:19;1.65;;;0.82;;
84351;SDS011;74537;43.526;1.518;2023-12-14T12:49:45;2.10;;;0.80;;
84351;SDS011;74537;43.526;1.518;2023-12-14T12:52:10;2.70;;;1.20;;
84351;SDS011;74537;43.526;1.518;2023-12-14T12:54:36;2.78;;;0.90;;
84351;SDS011;74537;43.526;1.518;2023-12-14T12:57:01;3.47;;;0.95;;
84351;SDS011;74537;43.526;1.518;2023-12-14T12:59:27;1.10;;;0.80;;
84351;SDS011;74537;43.526;1.518;2023-12-14T13:01:53;1.52;;;1.20;;
84351;SDS011;74537;43.526;1.518;2023-12-14T13:04:19;2.45;;;1.00;;
84351;SDS011;74537;43.526;1.518;2023-12-14T13:06:47;3.65;;;1.20;;
84351;SDS011;74537;43.526;1.518;2023-12-14T13:09:17;3.15;;;0.98;;
84351;SDS011;74537;43.526;1.518;2023-12-14T13:11:44;3.03;;;0.98;;
84351;SDS011;74537;43.526;1.518;2023-12-14T13:14:10;2.22;;;0.80;;
84351;SDS011;74537;43.526;1.518;2023-12-14T13:16:36;2.40;;;1.00;;
84351;SDS011;74537;43.526;1.518;2023-12-14T13:19:02;4.70;;;1.20;;
84351;SDS011;74537;43.526;1.518;2023-12-14T13:21:29;1.63;;;1.35;;
84351;SDS011;74537;43.526;1.518;2023-12-14T13:24:01;3.58;;;1.20;;
84351;SDS011;74537;43.526;1.518;2023-12-14T13:26:27;4.30;;;1.33;;
84351;SDS011;74537;43.526;1.518;2023-12-14T13:28:53;4.78;;;1.30;;
84351;SDS011;74537;43.526;1.518;2023-12-14T13:31:19;6.13;;;1.20;;
84351;SDS011;74537;43.526;1.518;2023-12-14T13:33:48;2.72;;;1.05;;
84351;SDS011;74537;43.526;1.518;2023-12-14T13:36:15;4.68;;;1.35;;
84351;SDS011;74537;43.526;1.518;2023-12-14T13:38:41;2.20;;;1.10;;
84351;SDS011;74537;43.526;1.518;2023-12-14T13:41:10;3.92;;;1.00;;
84351;SDS011;74537;43.526;1.518;2023-12-14T13:43:35;2.78;;;1.40;;
84351;SDS011;74537;43.526;1.518;2023-12-14T13:46:01;4.35;;;1.02;;
84351;SDS011;74537;43.526;1.518;2023-12-14T13:48:27;3.90;;;1.10;;
84351;SDS011;74537;43.526;1.518;2023-12-14T13:50:53;1.80;;;0.90;;
84351;SDS011;74537;43.526;1.518;2023-12-14T13:53:20;3.75;;;1.30;;
84351;SDS011;74537;43.526;1.518;2023-12-14T13:55:46;1.80;;;0.80;;
84351;SDS011;74537;43.526;1.518;2023-12-14T13:58:12;3.88;;;1.13;;
84351;SDS011;74537;43.526;1.518;2023-12-14T14:00:38;2.55;;;1.05;;
84351;SDS011;74537;43.526;1.518;2023-12-14T14:03:04;3.35;;;1.13;;
84351;SDS011;74537;43.526;1.518;2023-12-14T14:05:30;4.20;;;1.48;;
84351;SDS011;74537;43.526;1.518;2023-12-14T14:07:56;3.85;;;1.20;;
84351;SDS011;74537;43.526;1.518;2023-12-14T14:10:22;4.00;;;1.10;;
84351;SDS011;74537;43.526;1.518;2023-12-14T14:12:47;3.65;;;1.10;;
84351;SDS011;74537;43.526;1.518;2023-12-14T14:15:13;3.55;;;1.02;;
84351;SDS011;74537;43.526;1.518;2023-12-14T14:17:38;4.60;;;1.20;;
84351;SDS011;74537;43.526;1.518;2023-12-14T14:20:04;5.35;;;1.33;;
84351;SDS011;74537;43.526;1.518;2023-12-14T14:22:31;3.58;;;1.15;;
84351;SDS011;74537;43.526;1.518;2023-12-14T14:24:57;2.30;;;0.77;;
84351;SDS011;74537;43.526;1.518;2023-12-14T14:27:23;2.90;;;1.05;;
84351;SDS011;74537;43.526;1.518;2023-12-14T14:29:49;3.00;;;1.20;;
84351;SDS011;74537;43.526;1.518;2023-12-14T14:32:15;4.90;;;1.25;;
84351;SDS011;74537;43.526;1.518;2023-12-14T14:34:41;2.33;;;1.10;;
84351;SDS011;74537;43.526;1.518;2023-12-14T14:37:07;3.45;;;1.05;;
84351;SDS011;74537;43.526;1.518;2023-12-14T14:39:33;2.38;;;0.90;;
84351;SDS011;74537;43.526;1.518;2023-12-14T14:41:58;1.98;;;0.98;;
84351;SDS011;74537;43.526;1.518;2023-12-14T14:44:24;3.08;;;1.40;;
84351;SDS011;74537;43.526;1.518;2023-12-14T14:46:50;2.30;;;1.10;;
84351;SDS011;74537;43.526;1.518;2023-12-14T14:49:16;3.35;;;1.10;;